CheckWX is a tool to help pilots better visualize weather data.  It is not intended as a substitute for an official pre-flight weather briefing.

18:15:57 UTC

KPBF METAR
Pine Bluff Regional Grider Field Airport
Pine Bluff, Arkansas, USA
Current

23 mins ago

KPBF 251753Z AUTO 18007KT 10SM VCTS BKN060 OVC075 28/22 A2992 RMK AO2 LTG DSNT SE SLP130 T02780217 10283 20233 58013
Observed
Aug-25 @ 17:53 UTC
Wind
  • 180° at 7 KTS
Visibility
10 SM
Flight Rules
VFR
Conditions
Area Thunderstorm
Cloud Levels
  • Broken at 6,000' AGL
  • Overcast at 7,500' AGL
Temperature
28°C / 82°F
Dewpoint
22°C / 72°F
Heat Index
30°C / 86°F
Humidity
70%
Altimeter
29.92" Hg
Pressure
1013.22 hPa
Previous

57 mins ago

KPBF 251719Z AUTO 16006KT 10SM VCTS FEW034 BKN049 OVC060 28/22 A2994 RMK AO2 LTG DSNT NE T02780222
Observed
Aug-25 @ 17:19 UTC
Wind
  • 160° at 6 KTS
Visibility
10 SM
Flight Rules
VFR
Conditions
Area Thunderstorm
Cloud Levels
  • Few at 3,400' AGL
  • Broken at 4,900' AGL
  • Overcast at 6,000' AGL
Temperature
28°C / 82°F
Dewpoint
22°C / 72°F
Heat Index
30°C / 86°F
Humidity
70%
Altimeter
29.94" Hg
Pressure
1013.92 hPa
Previous

1 hour ago

KPBF 251707Z AUTO 19006KT 10SM SCT037 SCT045 BKN060 28/22 A2994 RMK AO2 T02780217
Observed
Aug-25 @ 17:07 UTC
Wind
  • 190° at 6 KTS
Visibility
10 SM
Flight Rules
VFR
Cloud Levels
  • Scattered at 3,700' AGL
  • Scattered at 4,500' AGL
  • Broken at 6,000' AGL
Temperature
28°C / 82°F
Dewpoint
22°C / 72°F
Heat Index
30°C / 86°F
Humidity
70%
Altimeter
29.94" Hg
Pressure
1013.92 hPa